createdAt,value
2023-04-20T00:02:03.093Z,12.33
2023-04-20T00:04:31.527Z,12.47
2023-04-20T00:06:59.828Z,12.42
2023-04-20T00:09:28.577Z,12.52
2023-04-20T00:11:56.879Z,12.50
2023-04-20T00:14:25.167Z,12.37
2023-04-20T00:16:53.405Z,12.30
2023-04-20T00:19:22.249Z,12.45
2023-04-20T00:21:50.613Z,12.57
2023-04-20T00:24:18.820Z,12.70
2023-04-20T00:26:47.191Z,12.44
2023-04-20T00:29:15.596Z,12.59
2023-04-20T00:31:43.938Z,12.62
2023-04-20T00:34:12.257Z,12.69
2023-04-20T00:36:40.522Z,12.73
2023-04-20T00:39:08.885Z,12.64
2023-04-20T00:41:37.269Z,12.76
2023-04-20T00:44:13.929Z,12.68
2023-04-20T00:46:42.435Z,12.69
2023-04-20T00:49:11.084Z,12.53
2023-04-20T00:51:39.706Z,12.49
2023-04-20T00:54:08.018Z,12.55
2023-04-20T00:56:36.273Z,12.57
2023-04-20T00:59:08.162Z,12.71
2023-04-20T01:01:37.390Z,12.70
2023-04-20T01:04:07.910Z,12.58
2023-04-20T01:06:36.516Z,12.25
2023-04-20T01:09:04.797Z,12.05
2023-04-20T01:11:33.128Z,12.25
2023-04-20T01:14:01.719Z,12.06
2023-04-20T01:16:31.009Z,11.90
2023-04-20T01:18:59.491Z,11.88
2023-04-20T01:21:28.096Z,12.05
2023-04-20T01:23:56.292Z,12.19
2023-04-20T01:26:25.681Z,12.21
2023-04-20T01:28:54.131Z,12.18
2023-04-20T01:31:22.781Z,12.08
2023-04-20T01:33:52.434Z,11.99
2023-04-20T01:36:22.397Z,12.06
2023-04-20T01:38:51.763Z,12.04
2023-04-20T01:41:20.157Z,11.89
2023-04-20T01:43:48.497Z,11.81
2023-04-20T01:46:16.774Z,11.82
2023-04-20T01:48:45.112Z,11.98
2023-04-20T01:51:13.317Z,12.06
2023-04-20T01:53:41.634Z,12.06
2023-04-20T01:56:09.939Z,12.04
2023-04-20T01:58:38.197Z,12.03
2023-04-20T02:01:06.653Z,11.94
2023-04-20T02:03:35.444Z,12.02
2023-04-20T02:06:03.988Z,11.95
2023-04-20T02:08:33.676Z,11.84
2023-04-20T02:11:02.136Z,11.67
2023-04-20T02:13:30.461Z,11.72
2023-04-20T02:15:58.831Z,11.93
2023-04-20T02:18:27.074Z,11.71
2023-04-20T02:20:55.311Z,11.82
2023-04-20T02:23:23.514Z,11.85
2023-04-20T02:25:51.805Z,11.81
2023-04-20T02:28:20.525Z,11.82
2023-04-20T02:30:48.771Z,11.67
2023-04-20T02:33:17.352Z,11.68
2023-04-20T02:35:45.801Z,11.73
2023-04-20T02:38:14.313Z,11.65
2023-04-20T02:40:42.596Z,11.56
2023-04-20T02:43:11.374Z,11.55
2023-04-20T02:45:40.818Z,11.48
2023-04-20T02:48:10.394Z,11.43
2023-04-20T02:50:38.921Z,11.33
2023-04-20T02:53:27.422Z,11.47
2023-04-20T02:56:11.465Z,11.52
2023-04-20T02:58:44.881Z,11.39
2023-04-20T03:01:48.275Z,11.44
2023-04-20T03:04:22.070Z,11.53
2023-04-20T03:06:58.494Z,11.44
2023-04-20T03:09:30.799Z,11.45
2023-04-20T03:12:18.535Z,11.59
2023-04-20T03:14:49.547Z,11.61
2023-04-20T03:17:21.388Z,11.62
2023-04-20T03:19:51.382Z,11.50
2023-04-20T03:22:19.750Z,11.58
2023-04-20T03:24:53.496Z,11.65
2023-04-20T03:27:42.176Z,11.61
2023-04-20T03:30:14.684Z,11.57
2023-04-20T03:32:44.917Z,11.67
2023-04-20T03:35:13.521Z,11.60
2023-04-20T03:37:41.833Z,11.50
2023-04-20T03:40:11.044Z,11.58
2023-04-20T03:42:39.518Z,11.60
2023-04-20T03:45:08.513Z,11.56
2023-04-20T03:47:37.127Z,11.69
2023-04-20T03:50:06.427Z,11.64
2023-04-20T03:52:34.988Z,11.51
2023-04-20T03:55:07.153Z,11.48
2023-04-20T03:57:38.828Z,11.54
2023-04-20T04:00:11.186Z,11.46
2023-04-20T04:02:48.687Z,11.59
2023-04-20T04:05:25.717Z,11.62
2023-04-20T04:07:55.217Z,11.61
2023-04-20T04:10:24.740Z,11.64
2023-04-20T04:12:53.228Z,11.43
2023-04-20T04:15:21.701Z,11.54
2023-04-20T04:17:56.852Z,11.47
2023-04-20T04:20:25.412Z,11.50
2023-04-20T04:22:54.329Z,11.47
2023-04-20T04:25:34.302Z,11.40
2023-04-20T04:28:02.736Z,11.50
2023-04-20T04:30:33.466Z,11.44
2023-04-20T04:33:04.581Z,11.42
2023-04-20T04:35:34.903Z,11.46
2023-04-20T04:38:03.234Z,11.40
2023-04-20T04:40:33.575Z,11.42
2023-04-20T04:43:03.977Z,11.44
2023-04-20T04:45:32.927Z,11.48
2023-04-20T04:48:03.059Z,11.40
2023-04-20T04:50:31.537Z,11.42
2023-04-20T04:52:59.736Z,11.49
2023-04-20T04:55:27.993Z,11.48
2023-04-20T04:57:57.406Z,11.42
2023-04-20T05:00:25.950Z,11.44
2023-04-20T05:02:54.548Z,11.51
2023-04-20T05:05:23.104Z,11.44
2023-04-20T05:07:51.732Z,11.27
2023-04-20T05:10:20.181Z,11.33
2023-04-20T05:12:48.937Z,11.39
2023-04-20T05:15:17.928Z,11.37
2023-04-20T05:17:46.275Z,11.48
2023-04-20T05:20:14.536Z,11.47
2023-04-20T05:22:43.034Z,11.40
2023-04-20T05:25:13.971Z,11.19
2023-04-20T05:27:42.798Z,11.33
2023-04-20T05:30:20.469Z,11.27
2023-04-20T05:32:51.462Z,11.26
2023-04-20T05:35:21.537Z,11.32
2023-04-20T05:37:50.155Z,11.35
2023-04-20T05:40:18.611Z,11.36
2023-04-20T05:42:46.902Z,11.39
2023-04-20T05:45:15.330Z,11.29
2023-04-20T05:47:52.443Z,11.29
2023-04-20T05:50:21.792Z,11.36
2023-04-20T05:52:50.027Z,11.43
2023-04-20T05:55:22.048Z,11.45
2023-04-20T05:57:52.432Z,11.31
2023-04-20T06:00:22.070Z,11.33
2023-04-20T06:02:52.596Z,11.45
2023-04-20T06:05:21.451Z,11.56
2023-04-20T06:07:49.862Z,11.41
2023-04-20T06:10:18.169Z,11.54
2023-04-20T06:12:46.727Z,11.49
2023-04-20T06:15:14.998Z,11.54
2023-04-20T06:17:43.440Z,11.59
2023-04-20T06:20:12.187Z,11.72
2023-04-20T06:22:45.196Z,11.74
2023-04-20T06:25:13.951Z,11.68
2023-04-20T06:27:42.739Z,11.88
2023-04-20T06:30:11.843Z,11.92
2023-04-20T06:32:40.155Z,11.99
2023-04-20T06:35:09.059Z,12.03
2023-04-20T06:37:37.478Z,11.99
2023-04-20T06:40:10.596Z,11.92
2023-04-20T06:42:39.004Z,12.10
2023-04-20T06:45:08.227Z,11.98
2023-04-20T06:47:37.022Z,12.05
2023-04-20T06:50:09.873Z,12.13
2023-04-20T06:52:40.452Z,12.06
2023-04-20T06:55:09.896Z,12.24
2023-04-20T06:57:43.645Z,12.19
2023-04-20T07:00:13.197Z,12.33
2023-04-20T07:02:47.183Z,12.47
2023-04-20T07:05:17.268Z,12.57
2023-04-20T07:07:46.343Z,12.67
2023-04-20T07:10:15.673Z,12.81
2023-04-20T07:12:44.954Z,12.76
2023-04-20T07:15:13.547Z,12.94
2023-04-20T07:17:41.926Z,12.87
2023-04-20T07:20:11.105Z,12.92
2023-04-20T07:22:40.101Z,12.89
2023-04-20T07:25:11.049Z,12.87
2023-04-20T07:27:41.512Z,12.95
2023-04-20T07:30:10.875Z,12.80
2023-04-20T07:32:41.127Z,12.83
2023-04-20T07:35:10.438Z,12.84
2023-04-20T07:37:39.199Z,12.88
2023-04-20T07:40:08.550Z,12.86
2023-04-20T07:42:37.308Z,12.92
2023-04-20T07:45:07.669Z,12.95
2023-04-20T07:47:36.994Z,13.10
2023-04-20T07:50:07.816Z,13.00
2023-04-20T07:52:36.279Z,13.09
2023-04-20T07:55:06.120Z,13.11
2023-04-20T07:57:34.936Z,13.18
2023-04-20T08:00:07.398Z,13.13
2023-04-20T08:02:41.672Z,13.10
2023-04-20T08:05:11.111Z,13.07
2023-04-20T08:07:40.020Z,13.22
2023-04-20T08:10:09.282Z,13.18
2023-04-20T08:12:38.595Z,13.17
2023-04-20T08:15:08.002Z,13.29
2023-04-20T08:17:36.329Z,13.28
2023-04-20T08:20:06.124Z,13.29
2023-04-20T08:22:34.598Z,13.33
2023-04-20T08:25:04.259Z,13.45
2023-04-20T08:27:32.998Z,13.51
2023-04-20T08:30:01.859Z,13.84
2023-04-20T08:32:30.151Z,14.08
2023-04-20T08:34:58.535Z,14.19
2023-04-20T08:37:26.986Z,14.50
2023-04-20T08:39:55.326Z,14.66
2023-04-20T08:42:23.576Z,14.82
2023-04-20T08:44:52.766Z,15.04
2023-04-20T08:47:21.600Z,15.54
2023-04-20T08:49:57.638Z,15.60
2023-04-20T08:52:25.997Z,15.87
2023-04-20T08:54:57.594Z,15.75
2023-04-20T08:57:26.692Z,15.67
2023-04-20T08:59:58.227Z,15.52
2023-04-20T09:02:26.786Z,15.48
2023-04-20T09:05:05.862Z,15.37
2023-04-20T09:07:34.272Z,15.70
2023-04-20T09:10:02.718Z,15.90
2023-04-20T09:12:43.688Z,16.58
2023-04-20T09:15:24.422Z,16.83
2023-04-20T09:17:52.732Z,16.77
2023-04-20T09:20:34.978Z,16.73
2023-04-20T09:23:18.791Z,16.84
2023-04-20T09:25:52.929Z,16.53
2023-04-20T09:28:21.652Z,16.62
2023-04-20T09:30:51.615Z,16.82
2023-04-20T09:33:19.869Z,17.16
2023-04-20T09:35:48.467Z,17.35
2023-04-20T09:38:17.454Z,17.37
2023-04-20T09:40:45.876Z,17.24
2023-04-20T09:43:20.429Z,17.25
2023-04-20T09:45:50.287Z,17.01
2023-04-20T09:48:20.808Z,16.81
2023-04-20T09:50:50.969Z,16.77
2023-04-20T09:53:20.715Z,16.60
2023-04-20T09:55:54.162Z,16.93
2023-04-20T09:58:22.258Z,16.88
2023-04-20T10:00:51.258Z,16.87
2023-04-20T10:03:20.592Z,16.72
2023-04-20T10:05:50.649Z,16.71
2023-04-20T10:08:20.591Z,16.58
2023-04-20T10:10:51.437Z,16.51
2023-04-20T10:13:21.753Z,16.61
2023-04-20T10:15:50.221Z,16.87
2023-04-20T10:18:24.535Z,17.08
2023-04-20T10:21:09.390Z,17.28
2023-04-20T10:23:52.661Z,17.37
2023-04-20T10:26:20.931Z,17.27
2023-04-20T10:28:49.680Z,17.17
2023-04-20T10:31:20.393Z,17.36
2023-04-20T10:33:56.546Z,17.90
2023-04-20T10:36:31.677Z,17.82
2023-04-20T10:39:04.864Z,17.81
2023-04-20T10:41:33.051Z,17.74
2023-04-20T10:44:10.294Z,17.64
2023-04-20T10:46:38.444Z,17.76
2023-04-20T10:49:09.038Z,18.59
2023-04-20T10:51:37.386Z,18.87
2023-04-20T10:54:09.074Z,18.67
2023-04-20T10:56:38.912Z,18.89
2023-04-20T10:59:15.845Z,19.09
2023-04-20T11:01:45.503Z,19.65
2023-04-20T11:04:17.802Z,20.31
2023-04-20T11:06:48.351Z,20.92
2023-04-20T11:09:23.484Z,21.52
2023-04-20T11:12:16.008Z,21.32
2023-04-20T11:15:02.719Z,21.42
2023-04-20T11:17:35.912Z,23.65
2023-04-20T11:20:14.359Z,23.86
2023-04-20T11:22:43.704Z,23.49
2023-04-20T11:25:13.199Z,22.67
2023-04-20T11:27:42.045Z,22.10
2023-04-20T11:30:10.586Z,21.58
2023-04-20T11:32:39.244Z,21.34
2023-04-20T11:35:10.889Z,20.96
2023-04-20T11:37:54.391Z,20.70
2023-04-20T11:40:22.959Z,20.30
2023-04-20T11:42:51.472Z,20.22
2023-04-20T11:45:19.957Z,21.38
2023-04-20T11:47:51.832Z,22.83
2023-04-20T11:50:21.148Z,22.13
2023-04-20T11:52:49.207Z,22.30
2023-04-20T11:55:17.316Z,23.44
2023-04-20T11:57:45.889Z,23.71
2023-04-20T12:00:15.027Z,23.47
2023-04-20T12:02:43.276Z,24.44
2023-04-20T12:05:12.018Z,25.68
2023-04-20T12:07:40.519Z,24.63
2023-04-20T12:10:09.269Z,23.91
2023-04-20T12:12:38.446Z,24.50
2023-04-20T12:15:09.350Z,23.80
2023-04-20T12:17:37.670Z,23.15
2023-04-20T12:20:08.871Z,24.35
2023-04-20T12:22:37.034Z,26.58
2023-04-20T12:25:06.765Z,27.96
2023-04-20T12:27:34.795Z,28.93
2023-04-20T12:30:04.066Z,29.25
2023-04-20T12:32:32.098Z,28.86
2023-04-20T12:35:00.598Z,28.24
2023-04-20T12:37:29.568Z,27.61
2023-04-20T12:39:58.069Z,26.98
2023-04-20T12:42:26.484Z,26.38
2023-04-20T12:44:54.616Z,26.92
2023-04-20T12:47:23.172Z,27.81
2023-04-20T12:49:51.519Z,27.88
2023-04-20T12:52:19.492Z,27.91
2023-04-20T12:54:50.017Z,26.46
2023-04-20T12:57:18.600Z,26.38
2023-04-20T12:59:48.670Z,27.33
2023-04-20T13:02:18.026Z,29.06
2023-04-20T13:04:46.920Z,29.68
2023-04-20T13:07:15.465Z,30.91
2023-04-20T13:09:43.325Z,31.04
2023-04-20T13:12:13.362Z,31.69
2023-04-20T13:14:41.724Z,32.27
2023-04-20T13:17:09.607Z,33.07
2023-04-20T13:19:37.579Z,33.53
2023-04-20T13:22:06.167Z,33.12
2023-04-20T13:24:34.401Z,32.78
2023-04-20T13:27:02.442Z,32.24
2023-04-20T13:29:30.837Z,31.06
2023-04-20T13:31:59.086Z,30.12
2023-04-20T13:34:27.781Z,31.13
2023-04-20T13:36:56.609Z,30.71
2023-04-20T13:39:27.551Z,29.19
2023-04-20T13:41:55.800Z,27.91
2023-04-20T13:44:24.090Z,27.80
2023-04-20T13:46:52.330Z,27.30
2023-04-20T13:49:22.770Z,26.91
2023-04-20T13:51:50.664Z,26.71
2023-04-20T13:54:21.688Z,25.93
2023-04-20T13:56:49.608Z,25.82
2023-04-20T13:59:17.926Z,25.62
2023-04-20T14:01:46.234Z,27.35
2023-04-20T14:04:16.915Z,28.92
2023-04-20T14:06:44.976Z,30.07
2023-04-20T14:09:13.319Z,30.33
2023-04-20T14:11:43.556Z,30.97
2023-04-20T14:14:12.026Z,29.38
2023-04-20T14:16:48.162Z,29.42
2023-04-20T14:19:16.613Z,30.88
2023-04-20T14:21:47.354Z,31.82
2023-04-20T14:24:15.981Z,32.07
2023-04-20T14:26:44.697Z,32.64
2023-04-20T14:29:13.037Z,33.27
2023-04-20T14:31:41.494Z,33.27
2023-04-20T14:34:09.950Z,33.62
2023-04-20T14:36:38.188Z,33.78
2023-04-20T14:39:06.545Z,34.89
2023-04-20T14:41:35.102Z,34.59
2023-04-20T14:44:04.072Z,33.40
2023-04-20T14:46:32.394Z,32.13
2023-04-20T14:49:00.830Z,31.29
2023-04-20T14:51:29.143Z,30.32
2023-04-20T14:53:57.819Z,29.66
2023-04-20T14:56:26.162Z,29.10
2023-04-20T14:58:55.750Z,29.68
2023-04-20T15:01:24.032Z,28.77
2023-04-20T15:03:55.522Z,28.10
2023-04-20T15:06:24.091Z,27.65
2023-04-20T15:09:02.658Z,27.14
2023-04-20T15:11:31.122Z,26.70
2023-04-20T15:13:59.371Z,25.92
2023-04-20T15:16:27.630Z,25.32
2023-04-20T15:18:57.545Z,24.77
2023-04-20T15:21:26.996Z,24.39
2023-04-20T15:23:55.325Z,23.94
2023-04-20T15:26:23.731Z,23.53
2023-04-20T15:28:52.764Z,23.37
2023-04-20T15:31:21.015Z,23.07
2023-04-20T15:33:49.330Z,23.00
2023-04-20T15:36:19.821Z,22.60
2023-04-20T15:38:48.450Z,22.38
2023-04-20T15:41:16.670Z,22.17
2023-04-20T15:43:44.951Z,21.92
2023-04-20T15:46:13.741Z,21.62
2023-04-20T15:48:43.178Z,21.31
2023-04-20T15:51:11.594Z,21.17
2023-04-20T15:53:39.881Z,21.02
2023-04-20T15:56:08.187Z,20.73
2023-04-20T15:58:37.127Z,20.51
2023-04-20T16:01:05.439Z,20.35
2023-04-20T16:03:35.092Z,20.10
2023-04-20T16:06:03.533Z,19.98
2023-04-20T16:08:32.161Z,19.85
2023-04-20T16:11:00.585Z,19.70
2023-04-20T16:13:29.085Z,19.54
2023-04-20T16:15:57.442Z,19.48
2023-04-20T16:18:25.760Z,19.20
2023-04-20T16:20:54.285Z,19.01
2023-04-20T16:23:22.813Z,18.76
2023-04-20T16:25:51.222Z,18.62
2023-04-20T16:28:19.484Z,18.49
2023-04-20T16:30:48.031Z,18.44
2023-04-20T16:33:16.813Z,18.16
2023-04-20T16:35:45.186Z,18.04
2023-04-20T16:38:13.626Z,17.95
2023-04-20T16:40:43.417Z,17.71
2023-04-20T16:43:12.043Z,17.69
2023-04-20T16:45:40.328Z,17.28
2023-04-20T16:48:08.698Z,17.10
2023-04-20T16:50:38.100Z,17.00
2023-04-20T16:53:08.972Z,17.04
2023-04-20T16:55:37.402Z,17.00
2023-04-20T16:58:05.789Z,16.94
2023-04-20T17:00:35.304Z,16.53
2023-04-20T17:03:10.420Z,16.54
2023-04-20T17:05:41.653Z,16.57
2023-04-20T17:08:10.531Z,16.47
2023-04-20T17:10:39.379Z,16.22
2023-04-20T17:13:07.926Z,16.32
2023-04-20T17:15:36.755Z,16.01
2023-04-20T17:18:06.716Z,16.02
2023-04-20T17:20:35.279Z,15.93
2023-04-20T17:23:03.800Z,15.76
2023-04-20T17:25:31.989Z,15.58
2023-04-20T17:28:00.561Z,15.56
2023-04-20T17:30:28.855Z,15.57
2023-04-20T17:32:57.600Z,15.46
2023-04-20T17:35:25.995Z,15.59
2023-04-20T17:37:54.241Z,15.39
2023-04-20T17:40:22.515Z,15.37
2023-04-20T17:42:50.896Z,15.34
2023-04-20T17:45:19.221Z,15.26
2023-04-20T17:47:47.775Z,15.27
2023-04-20T17:50:16.535Z,15.12
2023-04-20T17:52:45.049Z,15.25
2023-04-20T17:55:13.354Z,15.16
2023-04-20T17:57:41.660Z,14.99
2023-04-20T18:00:11.682Z,15.00
2023-04-20T18:02:40.949Z,14.97
2023-04-20T18:05:09.711Z,14.90
2023-04-20T18:07:38.274Z,14.94
2023-04-20T18:10:07.472Z,14.96
2023-04-20T18:12:36.849Z,14.94
2023-04-20T18:15:08.198Z,14.94
2023-04-20T18:17:36.845Z,14.91
2023-04-20T18:20:06.808Z,14.85
2023-04-20T18:22:37.020Z,14.84
2023-04-20T18:25:06.388Z,14.92
2023-04-20T18:27:34.731Z,14.92
2023-04-20T18:30:03.231Z,14.89
2023-04-20T18:32:32.908Z,14.82
2023-04-20T18:35:01.611Z,14.74
2023-04-20T18:37:29.821Z,14.78
2023-04-20T18:39:59.681Z,14.76
2023-04-20T18:42:27.947Z,14.65
2023-04-20T18:44:56.527Z,14.59
2023-04-20T18:47:26.376Z,14.63
2023-04-20T18:49:54.698Z,14.63
2023-04-20T18:52:23.382Z,14.61
2023-04-20T18:54:52.167Z,14.61
2023-04-20T18:57:25.975Z,14.67
2023-04-20T18:59:56.375Z,14.61
2023-04-20T19:02:24.950Z,14.63
2023-04-20T19:04:53.753Z,14.67
2023-04-20T19:07:22.069Z,14.67
2023-04-20T19:09:50.528Z,14.57
2023-04-20T19:12:19.010Z,14.59
2023-04-20T19:14:49.306Z,14.41
2023-04-20T19:17:17.851Z,14.41
2023-04-20T19:19:47.908Z,14.47
2023-04-20T19:22:16.383Z,14.49
2023-04-20T19:24:44.937Z,14.44
2023-04-20T19:27:13.375Z,14.39
2023-04-20T19:29:41.602Z,14.51
2023-04-20T19:32:09.872Z,14.52
2023-04-20T19:34:38.330Z,14.50
2023-04-20T19:37:06.641Z,14.52
2023-04-20T19:39:34.944Z,14.53
2023-04-20T19:42:03.301Z,14.54
2023-04-20T19:44:31.599Z,14.52
2023-04-20T19:46:59.803Z,14.51
2023-04-20T19:49:28.055Z,14.50
2023-04-20T19:51:56.330Z,14.48
2023-04-20T19:54:24.740Z,14.41
2023-04-20T19:56:52.992Z,14.38
2023-04-20T19:59:21.395Z,14.43
2023-04-20T20:01:50.794Z,14.32
2023-04-20T20:04:20.466Z,14.31
2023-04-20T20:06:50.619Z,14.39
2023-04-20T20:09:23.194Z,14.35
2023-04-20T20:11:52.454Z,14.26
2023-04-20T20:14:20.842Z,14.27
2023-04-20T20:16:49.201Z,14.33
2023-04-20T20:19:18.197Z,14.26
2023-04-20T20:21:46.788Z,14.31
2023-04-20T20:24:16.076Z,14.25
2023-04-20T20:26:44.676Z,14.27
2023-04-20T20:29:12.941Z,14.26
2023-04-20T20:31:41.776Z,14.18
2023-04-20T20:34:10.342Z,14.23
2023-04-20T20:36:38.657Z,14.21
2023-04-20T20:39:07.548Z,14.24
2023-04-20T20:41:36.256Z,14.28
2023-04-20T20:44:04.642Z,14.25
2023-04-20T20:46:33.034Z,14.18
2023-04-20T20:49:01.604Z,14.16
2023-04-20T20:51:29.909Z,14.23
2023-04-20T20:53:58.732Z,14.24
2023-04-20T20:56:27.150Z,14.29
2023-04-20T20:58:55.505Z,14.29
2023-04-20T21:01:23.920Z,14.31
2023-04-20T21:03:52.352Z,14.35
2023-04-20T21:06:20.838Z,14.34
2023-04-20T21:08:49.095Z,14.33
2023-04-20T21:11:17.449Z,14.36
2023-04-20T21:13:45.739Z,14.35
2023-04-20T21:16:14.184Z,14.39
2023-04-20T21:18:42.717Z,14.42
2023-04-20T21:21:13.688Z,14.42
2023-04-20T21:23:42.059Z,14.39
2023-04-20T21:26:10.551Z,14.38
2023-04-20T21:28:39.134Z,14.38
2023-04-20T21:31:07.649Z,14.41
2023-04-20T21:33:36.009Z,14.40
2023-04-20T21:36:04.678Z,14.36
2023-04-20T21:38:33.113Z,14.41
2023-04-20T21:41:03.796Z,14.44
2023-04-20T21:43:31.684Z,14.46
2023-04-20T21:46:00.270Z,14.44
2023-04-20T21:48:28.906Z,14.42
2023-04-20T21:50:57.471Z,14.44
2023-04-20T21:53:25.710Z,14.45
2023-04-20T21:55:54.003Z,14.47
2023-04-20T21:58:22.270Z,14.45
2023-04-20T22:00:50.957Z,14.47
2023-04-20T22:03:19.318Z,14.47
2023-04-20T22:05:47.846Z,14.47
2023-04-20T22:08:16.066Z,14.44
2023-04-20T22:10:44.300Z,14.48
2023-04-20T22:13:14.017Z,14.50
2023-04-20T22:15:44.080Z,14.48
2023-04-20T22:18:12.861Z,14.54
2023-04-20T22:20:41.117Z,14.53
2023-04-20T22:23:09.363Z,14.53
2023-04-20T22:25:37.593Z,14.51
2023-04-20T22:28:05.966Z,14.53
2023-04-20T22:30:34.545Z,14.51
2023-04-20T22:33:03.855Z,14.55
2023-04-20T22:35:32.176Z,14.50
2023-04-20T22:38:00.457Z,14.55
2023-04-20T22:40:28.833Z,14.61
2023-04-20T22:42:57.017Z,14.54
2023-04-20T22:45:25.477Z,14.52
2023-04-20T22:47:53.786Z,14.57
2023-04-20T22:50:22.323Z,14.48
2023-04-20T22:52:51.162Z,14.51
2023-04-20T22:55:19.661Z,14.48
2023-04-20T22:57:47.909Z,14.60
2023-04-20T23:00:16.677Z,14.62
2023-04-20T23:02:45.019Z,14.55
2023-04-20T23:05:13.441Z,14.53
2023-04-20T23:07:45.145Z,14.50
2023-04-20T23:10:16.190Z,14.57
2023-04-20T23:12:44.811Z,14.58
2023-04-20T23:15:13.579Z,14.54
2023-04-20T23:17:41.948Z,14.49
2023-04-20T23:20:13.337Z,14.44
2023-04-20T23:22:41.645Z,14.46
2023-04-20T23:25:10.934Z,14.41
2023-04-20T23:27:39.276Z,14.41
2023-04-20T23:30:08.703Z,14.45
2023-04-20T23:32:37.822Z,14.41
2023-04-20T23:35:06.297Z,14.49
2023-04-20T23:37:34.647Z,14.49
2023-04-20T23:40:06.704Z,14.38
2023-04-20T23:42:39.548Z,14.39
2023-04-20T23:45:08.901Z,14.31
2023-04-20T23:47:37.271Z,14.22
2023-04-20T23:50:06.656Z,14.12
2023-04-20T23:52:34.962Z,14.13
2023-04-20T23:55:03.980Z,14.10
2023-04-20T23:57:32.225Z,14.10
